Aspermont, Texas
Current Conditions -  °F | °C
As of 5:55 PM on Friday 19 Dec 2014 (Local Time) from KSWW Reporting Station
Overcast Overcast  
Wind Chill: 46°   Ceiling: 1900
Heat Index: 46°   Visibility: 10mi
Dew Point: 38°   Wind: 3mph
Humidity: 75%   Direction: 80°E
Pressure: 30.18"   Gusts: NA
Location:  33.13°N, 100.23°W
Report Text: KSWW 192355Z AUTO 08003KT 10SM OVC019 08/04 A3018 RMK AO2 T00770035 10085 20066
Loading
Personal Weather Stations






























Interactive Weather Map New forecast layout! Learn more

10-Day Weather Forecast

Advertisements
Track Severe Weather on mobile